Time;durP1;ratioP1;P1;durP2;ratioP2;P2;SDS_P1;SDS_P2;PMS_P1;PMS_P2;Temp;Humidity;BMP_temperature;BMP_pressure;BME280_temperature;BME280_humidity;BME280_pressure;Samples;Min_cycle;Max_cycle;Signal;HPM_P1;HPM_P2
2023/12/25 00:01:59;;;;;;;1.27;1.00;;;11.50;99.30;;;;;;4995525;28;20182;-87
2023/12/25 00:04:24;;;;;;;1.20;1.08;;;11.60;99.10;;;;;;4996399;28;20689;-87
2023/12/25 00:06:50;;;;;;;1.40;0.87;;;12.00;99.40;;;;;;4993308;28;20206;-87
2023/12/25 00:09:18;;;;;;;1.20;1.00;;;10.90;98.90;;;;;;4991669;28;20415;-87
2023/12/25 00:11:44;;;;;;;1.13;1.02;;;11.40;99.00;;;;;;4992730;28;20198;-87
2023/12/25 00:14:09;;;;;;;1.00;0.90;;;11.60;99.00;;;;;;5007573;28;20577;-87
2023/12/25 00:16:35;;;;;;;1.57;0.97;;;11.90;99.10;;;;;;4994066;28;20186;-87
2023/12/25 00:19:00;;;;;;;1.33;0.97;;;11.80;99.00;;;;;;4993933;28;20201;-87
2023/12/25 00:21:26;;;;;;;1.03;0.93;;;11.20;98.50;;;;;;4993752;28;20190;-86
2023/12/25 00:23:53;;;;;;;0.88;0.88;;;11.20;98.30;;;;;;5005574;28;20206;-86
2023/12/25 00:26:18;;;;;;;0.90;0.80;;;11.80;98.70;;;;;;5001744;28;20577;-86
2023/12/25 00:28:44;;;;;;;1.00;0.90;;;12.00;98.50;;;;;;4989409;28;20729;-87
2023/12/25 00:31:09;;;;;;;2.03;1.00;;;11.60;98.20;;;;;;4996537;28;20222;-88
2023/12/25 00:33:35;;;;;;;0.90;0.73;;;12.00;98.40;;;;;;4996447;28;20193;-86
2023/12/25 00:36:01;;;;;;;1.63;0.70;;;11.80;98.20;;;;;;5002298;28;20222;-86
2023/12/25 00:38:27;;;;;;;1.10;0.90;;;11.50;98.00;;;;;;4998091;28;20194;-87
2023/12/25 00:40:53;;;;;;;0.88;0.88;;;11.60;97.80;;;;;;5007853;28;20814;-86
2023/12/25 00:43:18;;;;;;;0.93;0.73;;;11.70;97.80;;;;;;4998641;28;20187;-87
2023/12/25 00:45:44;;;;;;;1.37;0.73;;;11.30;97.60;;;;;;4998845;28;20219;-87
2023/12/25 00:48:09;;;;;;;1.20;0.80;;;11.40;97.60;;;;;;5008207;28;20186;-87
2023/12/25 00:50:35;;;;;;;1.10;0.80;;;11.60;97.70;;;;;;5010200;28;20194;-87
2023/12/25 00:53:00;;;;;;;0.90;0.80;;;11.50;97.60;;;;;;5013192;28;20201;-87
2023/12/25 00:55:26;;;;;;;0.80;0.80;;;11.80;97.90;;;;;;5012657;28;20218;-87
2023/12/25 00:57:51;;;;;;;0.87;0.80;;;11.60;97.70;;;;;;5010497;28;20201;-87
2023/12/25 01:00:20;;;;;;;0.93;0.80;;;11.80;97.60;;;;;;5011362;28;20185;-87
2023/12/25 01:02:45;;;;;;;0.85;0.80;;;11.50;97.60;;;;;;5012034;28;20210;-86
2023/12/25 01:05:11;;;;;;;1.33;0.90;;;11.70;97.30;;;;;;5008517;28;20198;-86
2023/12/25 01:07:36;;;;;;;0.80;0.70;;;11.80;97.30;;;;;;5011398;28;20273;-86
2023/12/25 01:10:02;;;;;;;0.90;0.80;;;12.00;97.30;;;;;;5014030;28;20198;-86
2023/12/25 01:12:28;;;;;;;1.10;0.90;;;11.80;97.00;;;;;;5010751;28;20199;-87
2023/12/25 01:14:53;;;;;;;2.30;0.90;;;11.60;96.70;;;;;;5011145;28;20220;-87
2023/12/25 01:17:19;;;;;;;0.90;0.80;;;11.70;96.80;;;;;;5009683;28;20948;-87
2023/12/25 01:19:44;;;;;;;1.17;1.07;;;12.10;96.90;;;;;;5010926;28;20197;-87
2023/12/25 01:22:11;;;;;;;0.80;0.80;;;11.70;96.70;;;;;;5010868;28;20197;-87
2023/12/25 01:24:37;;;;;;;1.13;1.02;;;11.70;96.80;;;;;;5004128;28;20252;-87
2023/12/25 01:27:02;;;;;;;1.10;0.87;;;11.60;96.60;;;;;;4995869;28;20226;-87
2023/12/25 01:29:28;;;;;;;1.30;0.90;;;11.50;96.70;;;;;;5010131;28;20471;-87
2023/12/25 01:31:54;;;;;;;0.97;0.80;;;11.70;96.90;;;;;;5011507;28;20196;-87
2023/12/25 01:34:19;;;;;;;1.97;0.90;;;11.60;96.60;;;;;;4994453;28;20303;-87
2023/12/25 01:36:45;;;;;;;3.13;0.90;;;11.10;96.30;;;;;;4994578;28;20274;-88
2023/12/25 01:39:12;;;;;;;1.67;0.70;;;11.40;96.90;;;;;;4993491;28;20269;-87
2023/12/25 01:41:38;;;;;;;1.20;0.90;;;11.70;96.60;;;;;;4994781;28;20183;-87
2023/12/25 01:44:03;;;;;;;2.80;1.00;;;11.30;96.60;;;;;;4990555;28;20681;-87
2023/12/25 01:46:29;;;;;;;1.27;0.80;;;11.60;96.70;;;;;;4997410;28;20217;-87
2023/12/25 01:48:55;;;;;;;0.70;0.60;;;11.20;96.40;;;;;;5004185;28;20249;-87
2023/12/25 01:51:24;;;;;;;1.10;0.80;;;11.30;96.40;;;;;;5004289;28;20193;-86
2023/12/25 01:53:50;;;;;;;1.05;0.70;;;11.10;96.40;;;;;;5013650;28;20472;-87
2023/12/25 01:56:16;;;;;;;1.20;0.70;;;11.20;96.40;;;;;;5012148;28;20198;-87
2023/12/25 01:58:42;;;;;;;1.63;1.20;;;11.50;96.40;;;;;;5017760;28;20470;-87
2023/12/25 02:01:07;;;;;;;1.10;1.00;;;10.90;96.00;;;;;;5020361;28;20169;-87
2023/12/25 02:03:33;;;;;;;1.03;0.70;;;11.20;96.10;;;;;;5015171;28;20210;-88
2023/12/25 02:06:00;;;;;;;2.20;0.90;;;10.70;95.80;;;;;;5007719;28;20267;-88
2023/12/25 02:08:26;;;;;;;1.83;0.80;;;11.50;96.30;;;;;;5002378;28;20241;-87
2023/12/25 02:10:51;;;;;;;0.75;0.75;;;11.10;96.10;;;;;;5016847;28;20189;-86
2023/12/25 02:13:17;;;;;;;1.20;0.83;;;11.20;96.20;;;;;;5016070;28;20249;-87
2023/12/25 02:15:43;;;;;;;1.63;1.10;;;11.40;96.30;;;;;;4997136;28;20232;-87
2023/12/25 02:18:08;;;;;;;0.90;0.80;;;11.30;96.10;;;;;;4992870;28;20197;-88
2023/12/25 02:20:34;;;;;;;0.93;0.83;;;11.50;96.20;;;;;;4993391;28;20196;-87
2023/12/25 02:23:04;;;;;;;1.13;0.90;;;11.20;95.90;;;;;;4992611;28;20546;-86
2023/12/25 02:25:36;;;;;;;0.95;0.73;;;11.20;95.80;;;;;;4991230;28;20471;-87
2023/12/25 02:28:03;;;;;;;1.85;0.75;;;11.40;96.00;;;;;;5007980;28;20198;-87
2023/12/25 02:30:29;;;;;;;1.85;0.70;;;11.20;95.80;;;;;;4993667;28;20341;-88
2023/12/25 02:32:54;;;;;;;1.30;1.00;;;11.60;95.90;;;;;;4994791;28;20209;-87
2023/12/25 02:35:20;;;;;;;2.30;0.93;;;11.30;95.70;;;;;;4993636;28;20705;-87
2023/12/25 02:37:45;;;;;;;1.00;0.90;;;11.10;95.60;;;;;;4993670;28;20198;-88
2023/12/25 02:40:11;;;;;;;1.00;0.77;;;10.90;95.60;;;;;;4991773;28;20202;-86
2023/12/25 02:42:37;;;;;;;1.27;0.90;;;11.10;95.50;;;;;;4992376;28;20181;-88
2023/12/25 02:45:02;;;;;;;1.30;0.80;;;11.20;95.60;;;;;;4973007;28;20554;-87
2023/12/25 02:47:28;;;;;;;1.10;0.70;;;11.30;95.50;;;;;;4992771;28;20576;-87
2023/12/25 02:49:54;;;;;;;1.70;0.80;;;11.30;95.40;;;;;;4996626;28;20271;-87
2023/12/25 02:52:19;;;;;;;1.03;0.73;;;11.20;95.30;;;;;;4993925;28;20200;-87
2023/12/25 02:54:45;;;;;;;0.80;0.67;;;11.30;95.30;;;;;;4991407;28;20216;-87
2023/12/25 02:57:11;;;;;;;0.80;0.80;;;12.30;95.90;;;;;;4989352;28;20568;-88
2023/12/25 02:59:37;;;;;;;0.82;0.70;;;11.10;95.10;;;;;;4991162;28;20193;-87
2023/12/25 03:02:04;;;;;;;0.80;0.80;;;11.60;95.20;;;;;;4990616;28;20189;-88
2023/12/25 03:04:30;;;;;;;0.80;0.80;;;11.20;94.90;;;;;;4997758;28;20218;-87
2023/12/25 03:06:55;;;;;;;1.13;0.70;;;11.30;95.00;;;;;;5015612;28;20242;-87
2023/12/25 03:09:23;;;;;;;1.40;0.70;;;11.30;94.90;;;;;;4998055;28;20198;-86
2023/12/25 03:11:49;;;;;;;2.10;0.82;;;10.90;94.60;;;;;;4992269;28;20225;-87
2023/12/25 03:14:14;;;;;;;1.70;0.90;;;11.40;94.80;;;;;;4989325;28;20640;-86
2023/12/25 03:16:40;;;;;;;1.03;0.93;;;11.60;95.20;;;;;;4992684;28;20181;-87
2023/12/25 03:19:05;;;;;;;0.93;0.80;;;11.20;94.40;;;;;;4991317;28;20190;-87
2023/12/25 03:21:31;;;;;;;0.80;0.73;;;11.00;94.40;;;;;;4992822;28;20272;-87
2023/12/25 03:23:56;;;;;;;1.00;0.70;;;10.70;94.40;;;;;;4992771;28;20205;-86
2023/12/25 03:26:22;;;;;;;2.40;1.00;;;11.30;94.40;;;;;;5009827;28;20189;-87
2023/12/25 03:28:47;;;;;;;0.87;0.73;;;11.10;94.30;;;;;;4991289;28;20221;-88
2023/12/25 03:31:13;;;;;;;0.70;0.70;;;11.40;94.40;;;;;;4992113;28;20201;-88
2023/12/25 03:33:39;;;;;;;0.90;0.73;;;11.10;93.80;;;;;;4991921;28;20193;-87
2023/12/25 03:36:05;;;;;;;1.55;0.73;;;11.00;94.00;;;;;;4992211;28;20466;-87
2023/12/25 03:38:31;;;;;;;1.35;0.70;;;11.00;93.90;;;;;;4991358;28;20185;-87
2023/12/25 03:40:56;;;;;;;1.67;0.80;;;10.90;93.80;;;;;;4991407;28;20548;-87
2023/12/25 03:43:23;;;;;;;0.90;0.80;;;11.30;94.20;;;;;;4991780;28;20274;-88
2023/12/25 03:45:50;;;;;;;1.48;0.80;;;11.60;94.20;;;;;;4991714;28;20218;-87
2023/12/25 03:48:16;;;;;;;1.65;0.90;;;11.40;94.10;;;;;;4989718;28;20186;-87
2023/12/25 03:50:42;;;;;;;1.55;1.30;;;11.50;94.20;;;;;;4990740;28;20233;-86
2023/12/25 03:53:08;;;;;;;1.17;0.80;;;11.60;94.30;;;;;;4994314;28;20201;-86
2023/12/25 03:55:36;;;;;;;1.70;0.90;;;11.20;94.10;;;;;;4994585;28;20228;-86
2023/12/25 03:58:02;;;;;;;1.13;0.60;;;11.10;93.90;;;;;;4990844;28;20193;-87
2023/12/25 04:00:27;;;;;;;1.15;0.75;;;11.00;93.90;;;;;;4994679;28;20181;-87
2023/12/25 04:02:53;;;;;;;1.10;0.93;;;11.20;93.80;;;;;;4993359;28;20559;-87
2023/12/25 04:05:18;;;;;;;0.77;0.77;;;11.30;94.00;;;;;;4994762;28;20651;-87
2023/12/25 04:07:44;;;;;;;1.90;1.10;;;;;;;;;;4993708;28;20190;-87
2023/12/25 04:10:10;;;;;;;0.90;0.77;;;11.30;93.50;;;;;;4992161;28;20193;-86
2023/12/25 04:12:36;;;;;;;0.97;0.73;;;11.00;93.80;;;;;;4993799;28;20448;-86
2023/12/25 04:15:03;;;;;;;1.73;1.00;;;11.20;94.00;;;;;;5013196;28;20258;-87
2023/12/25 04:17:28;;;;;;;1.15;1.00;;;11.30;93.90;;;;;;5006935;28;20252;-86
2023/12/25 04:19:54;;;;;;;0.80;0.70;;;11.60;93.80;;;;;;4995269;28;20221;-86
2023/12/25 04:22:20;;;;;;;1.00;0.70;;;11.10;93.60;;;;;;4994946;28;20873;-87
2023/12/25 04:24:46;;;;;;;2.10;0.80;;;11.30;93.60;;;;;;4996213;28;20221;-86
2023/12/25 04:27:11;;;;;;;1.20;0.80;;;11.20;93.70;;;;;;4995344;28;20195;-87
2023/12/25 04:29:37;;;;;;;0.80;0.70;;;11.60;93.80;;;;;;4995257;28;20448;-86
2023/12/25 04:32:02;;;;;;;2.17;0.90;;;11.70;93.70;;;;;;4995364;28;20182;-87
2023/12/25 04:34:28;;;;;;;1.40;1.00;;;11.20;93.50;;;;;;5016570;28;20229;-87
2023/12/25 04:36:54;;;;;;;1.00;0.80;;;11.00;93.60;;;;;;4995695;28;20252;-86
2023/12/25 04:39:19;;;;;;;0.83;0.80;;;11.10;93.50;;;;;;4994347;28;20469;-86
2023/12/25 04:41:44;;;;;;;0.87;0.80;;;11.20;93.60;;;;;;4999004;28;20190;-87
2023/12/25 04:44:10;;;;;;;0.80;0.80;;;11.20;93.80;;;;;;4991608;28;20221;-87
2023/12/25 04:46:36;;;;;;;1.03;0.80;;;11.00;93.50;;;;;;4996319;28;20256;-88
2023/12/25 04:49:02;;;;;;;0.97;0.80;;;10.90;93.20;;;;;;5010913;28;20200;-87
2023/12/25 04:51:27;;;;;;;1.10;1.00;;;11.00;93.60;;;;;;4998530;28;20278;-87
2023/12/25 04:53:53;;;;;;;0.93;0.70;;;11.40;93.50;;;;;;4994247;28;20679;-86
2023/12/25 04:56:18;;;;;;;1.10;0.80;;;11.40;93.60;;;;;;4997168;28;20283;-86
2023/12/25 04:58:44;;;;;;;1.00;0.90;;;11.10;94.20;;;;;;4992958;28;20588;-86
2023/12/25 05:01:09;;;;;;;0.97;0.80;;;10.90;93.30;;;;;;4997489;28;20209;-87
2023/12/25 05:03:35;;;;;;;0.90;0.80;;;11.10;92.90;;;;;;4990870;28;20183;-88
2023/12/25 05:06:00;;;;;;;1.37;0.80;;;11.20;93.40;;;;;;4993849;28;20687;-88
2023/12/25 05:08:26;;;;;;;2.23;1.00;;;10.60;92.90;;;;;;4996184;28;20211;-87
2023/12/25 05:10:51;;;;;;;1.27;0.70;;;11.20;93.20;;;;;;4993575;28;20187;-87
2023/12/25 05:13:17;;;;;;;1.30;0.73;;;10.90;93.10;;;;;;4992679;28;20203;-88
2023/12/25 05:15:42;;;;;;;0.90;0.60;;;11.00;93.10;;;;;;4989847;28;20940;-86
2023/12/25 05:18:08;;;;;;;1.17;1.00;;;11.10;93.10;;;;;;4991274;28;20205;-87
2023/12/25 05:20:34;;;;;;;0.97;0.67;;;11.20;93.30;;;;;;4993386;28;20193;-87
2023/12/25 05:22:59;;;;;;;0.80;0.70;;;11.10;93.30;;;;;;4993360;28;20659;-87
2023/12/25 05:25:25;;;;;;;4.20;0.80;;;10.40;92.90;;;;;;4994486;28;20206;-87
2023/12/25 05:27:50;;;;;;;1.17;0.70;;;11.00;93.70;;;;;;4988670;28;20274;-87
2023/12/25 05:30:16;;;;;;;1.00;0.60;;;11.10;93.10;;;;;;4990693;28;20192;-87
2023/12/25 05:32:42;;;;;;;1.15;0.68;;;11.00;93.10;;;;;;4994650;28;20197;-87
2023/12/25 05:35:08;;;;;;;0.70;0.70;;;11.40;93.40;;;;;;4992981;28;20217;-87
2023/12/25 05:37:33;;;;;;;0.70;0.70;;;10.90;93.10;;;;;;4992624;28;20678;-87
2023/12/25 05:39:59;;;;;;;0.80;0.77;;;11.10;93.40;;;;;;4990140;28;20181;-87
2023/12/25 05:42:25;;;;;;;0.80;0.60;;;11.00;93.50;;;;;;4997629;28;20179;-87
2023/12/25 05:44:51;;;;;;;1.40;0.90;;;11.40;93.60;;;;;;4994917;28;20210;-87
2023/12/25 05:47:16;;;;;;;0.80;0.70;;;11.30;93.70;;;;;;4995764;28;20600;-87
2023/12/25 05:49:42;;;;;;;1.20;0.90;;;10.90;93.40;;;;;;5005259;28;20198;-87
2023/12/25 05:52:08;;;;;;;0.60;0.50;;;10.80;93.40;;;;;;4991080;28;20192;-87
2023/12/25 05:54:33;;;;;;;0.70;0.70;;;11.10;93.80;;;;;;4990141;28;20470;-86
2023/12/25 05:56:59;;;;;;;0.80;0.70;;;11.20;93.80;;;;;;4994126;28;20201;-88
2023/12/25 05:59:24;;;;;;;1.03;0.70;;;10.90;93.80;;;;;;4995554;28;20198;-88
2023/12/25 06:01:51;;;;;;;0.90;0.70;;;;;;;;;;4988278;28;20197;-87
2023/12/25 06:04:17;;;;;;;1.30;0.90;;;11.00;93.30;;;;;;4989529;28;20209;-87
2023/12/25 06:06:43;;;;;;;0.73;0.70;;;10.80;93.50;;;;;;4991572;28;20596;-88
2023/12/25 06:09:12;;;;;;;1.07;0.87;;;10.90;93.50;;;;;;4989350;28;20197;-87
2023/12/25 06:11:38;;;;;;;0.80;0.70;;;11.40;93.80;;;;;;4990560;28;20694;-87
2023/12/25 06:14:04;;;;;;;1.15;0.80;;;11.00;93.70;;;;;;4989553;28;20668;-87
2023/12/25 06:16:29;;;;;;;1.10;0.67;;;10.80;93.40;;;;;;4992121;28;20273;-87
2023/12/25 06:18:55;;;;;;;1.30;0.70;;;10.90;93.50;;;;;;5010728;28;20441;-87
2023/12/25 06:21:20;;;;;;;1.57;0.90;;;11.20;93.60;;;;;;5023187;28;20670;-86
2023/12/25 06:23:46;;;;;;;1.33;0.80;;;11.50;93.70;;;;;;5007484;28;20260;-85
2023/12/25 06:26:11;;;;;;;0.90;0.77;;;11.50;93.70;;;;;;4994159;28;20213;-85
2023/12/25 06:28:37;;;;;;;0.80;0.70;;;10.90;93.30;;;;;;5006324;28;20175;-85
2023/12/25 06:31:03;;;;;;;1.70;0.70;;;10.80;93.00;;;;;;5016168;28;20193;-84
2023/12/25 06:33:28;;;;;;;0.77;0.70;;;11.40;93.20;;;;;;4999292;28;20201;-85
2023/12/25 06:35:53;;;;;;;0.73;0.67;;;11.50;93.60;;;;;;4996092;28;20218;-85
2023/12/25 06:38:19;;;;;;;1.07;0.90;;;11.50;93.40;;;;;;4997205;28;20260;-85
2023/12/25 06:40:45;;;;;;;1.00;0.80;;;11.10;92.90;;;;;;5017728;28;20186;-85
2023/12/25 06:43:10;;;;;;;1.30;0.80;;;11.00;92.90;;;;;;5001540;28;20194;-84
2023/12/25 06:45:36;;;;;;;1.00;0.80;;;11.30;92.90;;;;;;5000204;28;20217;-84
2023/12/25 06:48:01;;;;;;;1.17;0.80;;;11.40;93.10;;;;;;5000168;28;20186;-85
2023/12/25 06:50:27;;;;;;;1.13;0.73;;;11.40;92.60;;;;;;4999382;28;20191;-83
2023/12/25 06:52:52;;;;;;;1.03;0.70;;;11.30;92.50;;;;;;5005097;28;20264;-84
2023/12/25 06:55:18;;;;;;;1.20;1.07;;;11.10;92.60;;;;;;4999327;28;20575;-84
2023/12/25 06:57:43;;;;;;;1.20;1.03;;;11.20;92.90;;;;;;5001000;28;20174;-83
2023/12/25 07:00:11;;;;;;;1.10;0.83;;;11.00;92.40;;;;;;5000263;28;20188;-84
2023/12/25 07:02:37;;;;;;;0.70;0.70;;;11.20;92.30;;;;;;5001373;28;20187;-84
2023/12/25 07:05:04;;;;;;;1.00;0.90;;;11.10;92.20;;;;;;4997341;28;20220;-84
2023/12/25 07:07:30;;;;;;;1.00;0.90;;;11.00;92.20;;;;;;5000422;28;20439;-84
2023/12/25 07:09:56;;;;;;;1.60;0.90;;;11.00;92.30;;;;;;5001085;28;20185;-84
2023/12/25 07:12:23;;;;;;;1.43;0.80;;;10.70;92.10;;;;;;5001347;28;20216;-83
2023/12/25 07:14:48;;;;;;;1.60;0.90;;;10.80;92.10;;;;;;4998878;28;20214;-85
2023/12/25 07:17:14;;;;;;;0.70;0.70;;;11.10;92.20;;;;;;4998582;28;20205;-85
2023/12/25 07:19:40;;;;;;;0.97;0.80;;;11.00;92.20;;;;;;5002137;28;20174;-85
2023/12/25 07:22:06;;;;;;;0.80;0.77;;;10.70;92.20;;;;;;5005158;28;20175;-84
2023/12/25 07:24:31;;;;;;;1.00;0.90;;;11.00;92.50;;;;;;4998355;28;20210;-85
2023/12/25 07:26:57;;;;;;;1.77;0.90;;;10.80;92.30;;;;;;5000163;28;20207;-83
2023/12/25 07:29:23;;;;;;;1.77;0.90;;;11.00;92.50;;;;;;5000986;28;20244;-83
2023/12/25 07:31:49;;;;;;;0.90;0.90;;;11.00;92.50;;;;;;5001763;28;20608;-83
2023/12/25 07:34:14;;;;;;;0.80;0.80;;;11.10;92.60;;;;;;5004438;28;20214;-85
2023/12/25 07:36:40;;;;;;;0.80;0.80;;;11.10;92.50;;;;;;5000604;28;20185;-86
2023/12/25 07:39:05;;;;;;;1.23;0.80;;;10.90;92.10;;;;;;4999675;28;20179;-87
2023/12/25 07:41:31;;;;;;;1.20;0.80;;;10.90;92.10;;;;;;4999040;28;20175;-88
2023/12/25 07:44:00;;;;;;;1.67;0.80;;;10.90;92.20;;;;;;4997622;28;20340;-87
2023/12/25 07:46:26;;;;;;;1.00;0.90;;;11.00;92.00;;;;;;4998402;28;20435;-87
2023/12/25 07:48:52;;;;;;;0.90;0.70;;;10.90;91.90;;;;;;4993577;28;20189;-87
2023/12/25 07:51:18;;;;;;;1.30;0.90;;;11.20;92.00;;;;;;5000130;28;20181;-87
2023/12/25 07:53:44;;;;;;;1.07;0.97;;;11.00;91.50;;;;;;4995495;28;21027;-87
2023/12/25 07:56:09;;;;;;;0.97;0.80;;;11.00;91.90;;;;;;4998445;28;20178;-85
2023/12/25 07:58:35;;;;;;;1.00;0.90;;;11.40;92.10;;;;;;4997347;28;20929;-86
2023/12/25 08:01:01;;;;;;;1.55;1.45;;;11.50;92.30;;;;;;5003971;28;20184;-85
2023/12/25 08:03:27;;;;;;;1.00;0.90;;;11.20;91.90;;;;;;4993156;28;20190;-85
2023/12/25 08:05:52;;;;;;;1.53;0.90;;;11.20;92.20;;;;;;4996651;28;20784;-85
2023/12/25 08:08:18;;;;;;;0.93;0.80;;;11.00;92.00;;;;;;4998830;28;20777;-85
2023/12/25 08:10:43;;;;;;;1.20;0.97;;;;;;;;;;4997944;28;20574;-86
2023/12/25 08:13:09;;;;;;;1.00;0.70;;;11.40;91.90;;;;;;4996847;28;20277;-85
2023/12/25 08:15:35;;;;;;;1.20;0.90;;;10.90;91.90;;;;;;4997518;28;20571;-85
2023/12/25 08:18:00;;;;;;;0.90;0.87;;;11.60;92.20;;;;;;5000446;28;20264;-86
2023/12/25 08:20:26;;;;;;;1.20;1.10;;;11.10;92.40;;;;;;4991638;28;20236;-86
2023/12/25 08:22:51;;;;;;;1.00;0.90;;;10.90;92.20;;;;;;4998731;28;20182;-85
2023/12/25 08:25:17;;;;;;;1.53;1.10;;;11.10;92.20;;;;;;4984746;28;20309;-85
2023/12/25 08:27:42;;;;;;;1.13;0.80;;;11.20;92.40;;;;;;4997641;28;20521;-84
2023/12/25 08:30:09;;;;;;;1.40;1.00;;;11.30;92.30;;;;;;4996344;28;20312;-85
2023/12/25 08:32:34;;;;;;;1.15;1.00;;;11.30;92.20;;;;;;5001842;28;20224;-83
2023/12/25 08:35:00;;;;;;;5.60;1.00;;;11.40;92.00;;;;;;4999826;28;20218;-85
2023/12/25 08:37:25;;;;;;;1.07;0.87;;;11.60;92.40;;;;;;4998747;28;20651;-85
2023/12/25 08:39:52;;;;;;;0.97;0.80;;;11.20;92.10;;;;;;5014888;28;20181;-85
2023/12/25 08:42:17;;;;;;;1.10;1.00;;;11.60;92.30;;;;;;5002032;28;20256;-85
2023/12/25 08:44:43;;;;;;;0.97;0.90;;;12.10;92.30;;;;;;4999824;28;20720;-86
2023/12/25 08:47:08;;;;;;;0.77;0.77;;;11.70;92.10;;;;;;4994354;28;20226;-86
2023/12/25 08:49:36;;;;;;;1.00;0.90;;;11.90;92.00;;;;;;4998171;28;20183;-86
2023/12/25 08:52:02;;;;;;;1.30;0.90;;;11.80;91.70;;;;;;5000074;28;20181;-87
2023/12/25 08:54:28;;;;;;;1.43;0.90;;;11.80;91.80;;;;;;5003647;28;20219;-86
2023/12/25 08:56:53;;;;;;;1.40;0.90;;;11.90;91.80;;;;;;4999406;28;20464;-86
2023/12/25 08:59:19;;;;;;;1.27;0.80;;;12.20;92.70;;;;;;5000434;28;20664;-87
2023/12/25 09:01:44;;;;;;;1.07;0.90;;;12.10;91.60;;;;;;5022354;28;20195;-87
2023/12/25 09:04:10;;;;;;;1.10;1.00;;;12.50;91.80;;;;;;5004645;28;20214;-87
2023/12/25 09:06:35;;;;;;;1.10;0.90;;;12.70;91.60;;;;;;5010900;28;20198;-86
2023/12/25 09:09:01;;;;;;;1.53;0.97;;;12.90;91.40;;;;;;5003977;28;20187;-85
2023/12/25 09:11:27;;;;;;;0.95;0.80;;;13.80;91.90;;;;;;4997075;28;20195;-87
2023/12/25 09:13:53;;;;;;;2.10;1.00;;;12.30;91.30;;;;;;5016459;28;20237;-86
2023/12/25 09:16:19;;;;;;;0.90;0.80;;;12.80;91.80;;;;;;5003844;28;20458;-85
2023/12/25 09:18:44;;;;;;;0.90;0.70;;;12.30;91.40;;;;;;5004153;28;20253;-84
2023/12/25 09:21:10;;;;;;;1.57;0.80;;;12.50;91.70;;;;;;5012043;28;20186;-86
2023/12/25 09:23:36;;;;;;;0.80;0.70;;;12.60;91.80;;;;;;5012955;28;20210;-86
2023/12/25 09:26:01;;;;;;;1.52;0.85;;;12.40;92.00;;;;;;5004182;28;20257;-86
2023/12/25 09:28:27;;;;;;;1.10;1.00;;;12.60;92.10;;;;;;4994650;28;20648;-86
2023/12/25 09:30:52;;;;;;;1.57;0.70;;;12.90;92.40;;;;;;4991688;28;20688;-86
2023/12/25 09:33:19;;;;;;;1.57;1.00;;;12.50;92.20;;;;;;5012330;28;20282;-84
2023/12/25 09:35:45;;;;;;;0.80;0.80;;;12.40;92.30;;;;;;4996345;28;20277;-85
2023/12/25 09:38:10;;;;;;;1.10;1.00;;;12.50;92.60;;;;;;5034505;23;20215;-88
2023/12/25 09:40:36;;;;;;;3.13;1.00;;;12.60;93.20;;;;;;5017783;28;20183;-89
2023/12/25 09:43:01;;;;;;;1.23;1.00;;;13.90;94.20;;;;;;4994571;28;20393;-89
2023/12/25 09:45:37;;;;;;;1.10;1.00;;;12.90;93.80;;;;;;5003934;28;20218;-89
2023/12/25 09:48:05;;;;;;;1.15;1.00;;;13.40;93.10;;;;;;5010335;28;20249;-89
2023/12/25 09:50:31;;;;;;;1.10;0.95;;;12.90;92.90;;;;;;5014597;28;20186;-89
2023/12/25 09:52:57;;;;;;;2.28;0.82;;;13.50;93.60;;;;;;5009824;28;20199;-89
2023/12/25 09:55:22;;;;;;;1.10;0.90;;;12.70;93.30;;;;;;5013213;28;20386;-89
2023/12/25 09:57:51;;;;;;;1.30;1.10;;;12.90;92.40;;;;;;5024902;28;20190;-89
2023/12/25 10:00:19;;;;;;;1.13;1.02;;;13.50;93.40;;;;;;5014757;28;20175;-89
2023/12/25 10:02:46;;;;;;;1.90;1.10;;;11.80;92.20;;;;;;5010406;28;20611;-89
2023/12/25 10:05:12;;;;;;;1.65;1.10;;;14.60;93.90;;;;;;5026055;28;20191;-88
2023/12/25 10:07:39;;;;;;;1.47;1.37;;;13.70;93.50;;;;;;5039325;28;20194;-90
2023/12/25 10:10:08;;;;;;;1.10;0.90;;;13.10;92.70;;;;;;5036353;28;20427;-87
2023/12/25 10:12:33;;;;;;;2.20;0.90;;;13.50;93.10;;;;;;5035865;28;20194;-87
2023/12/25 10:14:59;;;;;;;2.53;1.00;;;;;;;;;;5049595;28;20324;-90
2023/12/25 10:17:25;;;;;;;1.80;0.83;;;13.30;93.00;;;;;;5016452;28;20193;-88
2023/12/25 10:19:56;;;;;;;0.80;0.70;;;13.70;94.20;;;;;;5011616;28;20458;-89
2023/12/25 10:22:31;;;;;;;1.40;0.80;;;14.00;94.00;;;;;;5011416;28;20187;-89
2023/12/25 10:25:11;;;;;;;0.75;0.70;;;13.90;93.60;;;;;;5013112;28;20202;-89
2023/12/25 10:27:46;;;;;;;1.88;0.77;;;14.20;93.20;;;;;;4993522;28;20554;-89
2023/12/25 10:30:19;;;;;;;1.42;0.85;;;14.70;92.90;;;;;;5012122;28;20210;-89
2023/12/25 10:32:45;;;;;;;0.95;0.70;;;14.50;92.60;;;;;;5026883;28;20193;-90
2023/12/25 10:35:15;;;;;;;1.05;0.80;;;14.80;92.80;;;;;;5009150;28;20207;-89
2023/12/25 10:37:42;;;;;;;1.67;1.30;;;14.40;92.80;;;;;;5031237;28;20641;-89
2023/12/25 10:40:25;;;;;;;1.05;0.90;;;14.10;93.20;;;;;;5013529;28;20644;-89
2023/12/25 10:42:55;;;;;;;0.90;0.70;;;14.80;93.70;;;;;;5008627;28;20656;-89
2023/12/25 10:45:25;;;;;;;1.20;0.80;;;14.50;93.70;;;;;;5010120;28;20218;-89
2023/12/25 10:48:03;;;;;;;0.90;0.90;;;14.30;93.50;;;;;;5021796;28;20229;-88
2023/12/25 10:50:36;;;;;;;0.73;0.65;;;14.20;93.80;;;;;;5006427;28;20936;-89
2023/12/25 10:53:06;;;;;;;0.88;0.70;;;14.30;93.90;;;;;;5010472;28;20179;-88
2023/12/25 10:55:42;;;;;;;0.80;0.70;;;14.20;94.60;;;;;;5010238;28;20221;-87
2023/12/25 10:58:11;;;;;;;0.80;0.65;;;14.80;93.70;;;;;;5011576;28;20320;-87
2023/12/25 11:00:49;;;;;;;0.80;0.60;;;15.40;92.10;;;;;;5000856;28;20187;-86
2023/12/25 11:03:15;;;;;;;1.27;0.80;;;16.00;92.40;;;;;;5007028;28;20305;-87
2023/12/25 11:05:41;;;;;;;0.73;0.67;;;15.40;91.70;;;;;;5011378;28;20706;-89
2023/12/25 11:08:08;;;;;;;0.80;0.80;;;16.00;91.70;;;;;;5008926;28;20272;-89
2023/12/25 11:10:35;;;;;;;1.10;0.60;;;16.50;91.50;;;;;;5006787;28;20449;-89
2023/12/25 11:13:01;;;;;;;1.40;0.80;;;15.60;91.20;;;;;;5008779;28;20189;-86
2023/12/25 11:15:26;;;;;;;0.90;0.70;;;16.40;91.80;;;;;;5008994;28;20699;-89
2023/12/25 11:17:53;;;;;;;1.87;0.93;;;16.70;91.80;;;;;;5012099;28;20201;-88
2023/12/25 11:20:19;;;;;;;0.68;0.60;;;16.50;91.70;;;;;;4998037;28;20185;-89
2023/12/25 11:22:44;;;;;;;0.93;0.73;;;16.30;91.90;;;;;;5013920;28;20182;-88
2023/12/25 11:25:18;;;;;;;1.40;0.80;;;16.30;92.50;;;;;;5009964;28;20207;-89
2023/12/25 11:27:51;;;;;;;0.93;0.80;;;16.00;92.10;;;;;;5009360;28;20194;-89
2023/12/25 11:30:18;;;;;;;1.33;0.73;;;16.70;92.90;;;;;;5025090;28;20265;-88
2023/12/25 11:32:48;;;;;;;1.40;0.70;;;16.40;93.40;;;;;;5023708;28;20190;-89
2023/12/25 11:35:15;;;;;;;1.73;0.90;;;16.80;94.10;;;;;;5010521;28;20211;-89
2023/12/25 11:37:40;;;;;;;0.80;0.80;;;16.80;94.00;;;;;;4992704;28;20204;-89
2023/12/25 11:40:07;;;;;;;0.70;0.70;;;15.70;94.20;;;;;;5006674;28;20769;-88
2023/12/25 11:42:35;;;;;;;1.30;0.70;;;14.70;93.80;;;;;;5009083;28;20194;-89
2023/12/25 11:45:08;;;;;;;1.10;0.70;;;15.30;94.20;;;;;;5008857;28;20847;-89
2023/12/25 11:47:47;;;;;;;0.90;0.80;;;14.50;94.20;;;;;;5008568;28;20603;-89
2023/12/25 11:50:14;;;;;;;1.60;0.75;;;14.90;94.50;;;;;;5008578;28;20190;-88
2023/12/25 11:52:43;;;;;;;2.70;0.60;;;13.80;94.60;;;;;;5006374;28;20745;-88
2023/12/25 11:55:13;;;;;;;1.23;0.80;;;13.80;95.60;;;;;;5008062;28;20221;-88
2023/12/25 11:57:43;;;;;;;2.00;0.70;;;14.00;95.40;;;;;;5008125;28;20202;-88
2023/12/25 12:00:23;;;;;;;1.90;1.17;;;15.50;96.80;;;;;;5009140;28;20185;-88
2023/12/25 12:02:49;;;;;;;1.00;0.70;;;13.80;95.90;;;;;;5004999;28;20537;-88
2023/12/25 12:05:16;;;;;;;0.70;0.60;;;13.90;96.20;;;;;;5008039;28;20215;-88
2023/12/25 12:07:45;;;;;;;0.80;0.70;;;13.30;96.30;;;;;;5008800;28;20955;-88
2023/12/25 12:10:12;;;;;;;0.85;0.63;;;13.20;96.60;;;;;;5009405;28;20195;-88
2023/12/25 12:12:38;;;;;;;0.60;0.60;;;12.90;96.50;;;;;;5008856;28;20208;-88
2023/12/25 12:15:05;;;;;;;0.60;0.50;;;13.60;97.00;;;;;;5022687;28;20207;-88
2023/12/25 12:17:32;;;;;;;1.05;0.70;;;13.30;97.00;;;;;;5006156;28;20468;-89
2023/12/25 12:19:58;;;;;;;1.20;1.10;;;13.40;96.80;;;;;;5008912;28;20179;-88
2023/12/25 12:22:24;;;;;;;1.00;0.70;;;13.60;96.70;;;;;;5007624;28;20179;-88
2023/12/25 12:24:50;;;;;;;0.90;0.60;;;13.40;96.60;;;;;;5022037;28;20836;-88
2023/12/25 12:27:19;;;;;;;3.03;0.70;;;13.40;97.00;;;;;;5007128;28;20231;-88
2023/12/25 12:29:49;;;;;;;0.85;0.70;;;13.40;97.30;;;;;;5006849;28;20226;-88
2023/12/25 12:32:15;;;;;;;0.80;0.70;;;13.30;97.20;;;;;;5007840;28;20647;-88
2023/12/25 12:34:42;;;;;;;0.80;0.60;;;13.20;97.70;;;;;;5009444;28;20298;-88
2023/12/25 12:37:09;;;;;;;2.38;0.80;;;12.90;97.90;;;;;;5006989;28;20198;-88
2023/12/25 12:39:35;;;;;;;1.02;0.85;;;13.20;98.60;;;;;;5011157;28;20205;-88
2023/12/25 12:42:01;;;;;;;0.90;0.70;;;14.00;98.90;;;;;;5012424;28;20179;-89
2023/12/25 12:44:27;;;;;;;0.83;0.67;;;12.40;98.70;;;;;;5008117;28;20726;-88